sensor_id;sensor_type;location;lat;lon;timestamp;P1;durP1;ratioP1;P2;durP2;ratioP2
11453;SDS011;5783;55.174;61.310;2023-07-09T00:02:24;5.97;;;4.47;;
11453;SDS011;5783;55.174;61.310;2023-07-09T00:13:01;5.55;;;4.55;;
11453;SDS011;5783;55.174;61.310;2023-07-09T00:15:31;4.37;;;3.97;;
11453;SDS011;5783;55.174;61.310;2023-07-09T00:18:00;4.90;;;4.20;;
11453;SDS011;5783;55.174;61.310;2023-07-09T00:20:29;4.80;;;4.30;;
11453;SDS011;5783;55.174;61.310;2023-07-09T00:22:58;5.60;;;4.40;;
11453;SDS011;5783;55.174;61.310;2023-07-09T00:25:29;4.90;;;4.40;;
11453;SDS011;5783;55.174;61.310;2023-07-09T00:28:00;4.75;;;4.25;;
11453;SDS011;5783;55.174;61.310;2023-07-09T00:30:29;4.77;;;4.10;;
11453;SDS011;5783;55.174;61.310;2023-07-09T00:32:58;4.95;;;4.45;;
11453;SDS011;5783;55.174;61.310;2023-07-09T00:35:27;5.07;;;4.50;;
11453;SDS011;5783;55.174;61.310;2023-07-09T00:37:56;4.87;;;4.37;;
11453;SDS011;5783;55.174;61.310;2023-07-09T00:40:26;4.47;;;4.07;;
11453;SDS011;5783;55.174;61.310;2023-07-09T00:42:55;4.75;;;4.20;;
11453;SDS011;5783;55.174;61.310;2023-07-09T00:45:26;4.60;;;4.20;;
11453;SDS011;5783;55.174;61.310;2023-07-09T00:47:59;4.67;;;4.10;;
11453;SDS011;5783;55.174;61.310;2023-07-09T00:53:24;5.03;;;4.47;;
11453;SDS011;5783;55.174;61.310;2023-07-09T00:55:56;4.80;;;4.30;;
11453;SDS011;5783;55.174;61.310;2023-07-09T00:58:46;5.43;;;4.00;;
11453;SDS011;5783;55.174;61.310;2023-07-09T01:01:16;5.65;;;4.10;;
11453;SDS011;5783;55.174;61.310;2023-07-09T01:03:49;4.60;;;4.20;;
11453;SDS011;5783;55.174;61.310;2023-07-09T01:06:39;4.70;;;4.20;;
11453;SDS011;5783;55.174;61.310;2023-07-09T01:09:09;4.80;;;4.27;;
11453;SDS011;5783;55.174;61.310;2023-07-09T01:11:39;5.13;;;4.63;;
11453;SDS011;5783;55.174;61.310;2023-07-09T01:14:11;5.13;;;4.60;;
11453;SDS011;5783;55.174;61.310;2023-07-09T01:16:48;5.43;;;4.23;;
11453;SDS011;5783;55.174;61.310;2023-07-09T01:22:23;5.93;;;4.77;;
11453;SDS011;5783;55.174;61.310;2023-07-09T01:27:46;5.17;;;4.40;;
11453;SDS011;5783;55.174;61.310;2023-07-09T01:30:17;5.70;;;4.80;;
11453;SDS011;5783;55.174;61.310;2023-07-09T01:33:06;7.00;;;4.80;;
11453;SDS011;5783;55.174;61.310;2023-07-09T01:35:37;6.77;;;4.57;;
11453;SDS011;5783;55.174;61.310;2023-07-09T01:38:08;6.40;;;4.80;;
11453;SDS011;5783;55.174;61.310;2023-07-09T01:40:37;5.97;;;4.80;;
11453;SDS011;5783;55.174;61.310;2023-07-09T01:43:07;6.10;;;5.00;;
11453;SDS011;5783;55.174;61.310;2023-07-09T01:45:36;5.83;;;4.60;;
11453;SDS011;5783;55.174;61.310;2023-07-09T01:48:06;6.40;;;5.40;;
11453;SDS011;5783;55.174;61.310;2023-07-09T01:50:37;6.05;;;5.15;;
11453;SDS011;5783;55.174;61.310;2023-07-09T01:55:58;5.20;;;4.70;;
11453;SDS011;5783;55.174;61.310;2023-07-09T01:58:28;5.23;;;4.73;;
11453;SDS011;5783;55.174;61.310;2023-07-09T02:00:58;6.40;;;4.80;;
11453;SDS011;5783;55.174;61.310;2023-07-09T02:03:28;5.07;;;4.57;;
11453;SDS011;5783;55.174;61.310;2023-07-09T02:05:57;5.20;;;4.60;;
11453;SDS011;5783;55.174;61.310;2023-07-09T02:10:56;5.57;;;4.97;;
11453;SDS011;5783;55.174;61.310;2023-07-09T02:15:53;5.60;;;4.95;;
11453;SDS011;5783;55.174;61.310;2023-07-09T02:18:23;6.40;;;4.77;;
11453;SDS011;5783;55.174;61.310;2023-07-09T02:23:25;5.60;;;4.90;;
11453;SDS011;5783;55.174;61.310;2023-07-09T02:26:11;5.45;;;4.70;;
11453;SDS011;5783;55.174;61.310;2023-07-09T02:28:40;5.45;;;4.60;;
11453;SDS011;5783;55.174;61.310;2023-07-09T02:31:09;5.80;;;4.90;;
11453;SDS011;5783;55.174;61.310;2023-07-09T02:33:39;6.47;;;4.43;;
11453;SDS011;5783;55.174;61.310;2023-07-09T02:36:09;5.90;;;4.80;;
11453;SDS011;5783;55.174;61.310;2023-07-09T02:38:38;5.33;;;4.77;;
11453;SDS011;5783;55.174;61.310;2023-07-09T02:41:07;5.83;;;5.00;;
11453;SDS011;5783;55.174;61.310;2023-07-09T02:43:36;5.33;;;4.83;;
11453;SDS011;5783;55.174;61.310;2023-07-09T02:46:05;6.50;;;4.75;;
11453;SDS011;5783;55.174;61.310;2023-07-09T02:48:34;7.73;;;4.80;;
11453;SDS011;5783;55.174;61.310;2023-07-09T02:51:04;4.90;;;4.40;;
11453;SDS011;5783;55.174;61.310;2023-07-09T02:53:33;5.80;;;4.47;;
11453;SDS011;5783;55.174;61.310;2023-07-09T02:56:02;5.50;;;4.55;;
11453;SDS011;5783;55.174;61.310;2023-07-09T02:58:31;6.00;;;4.80;;
11453;SDS011;5783;55.174;61.310;2023-07-09T03:01:01;5.85;;;5.20;;
11453;SDS011;5783;55.174;61.310;2023-07-09T03:03:31;6.50;;;5.10;;
11453;SDS011;5783;55.174;61.310;2023-07-09T03:06:00;6.70;;;5.20;;
11453;SDS011;5783;55.174;61.310;2023-07-09T03:08:29;8.35;;;5.20;;
11453;SDS011;5783;55.174;61.310;2023-07-09T03:10:58;6.50;;;5.30;;
11453;SDS011;5783;55.174;61.310;2023-07-09T03:13:28;5.60;;;5.10;;
11453;SDS011;5783;55.174;61.310;2023-07-09T03:15:57;6.00;;;4.80;;
11453;SDS011;5783;55.174;61.310;2023-07-09T03:25:51;7.65;;;5.20;;
11453;SDS011;5783;55.174;61.310;2023-07-09T03:28:41;7.20;;;5.20;;
11453;SDS011;5783;55.174;61.310;2023-07-09T03:31:10;5.07;;;4.57;;
11453;SDS011;5783;55.174;61.310;2023-07-09T03:33:39;5.30;;;4.80;;
11453;SDS011;5783;55.174;61.310;2023-07-09T03:36:09;5.40;;;4.90;;
11453;SDS011;5783;55.174;61.310;2023-07-09T03:38:38;6.05;;;4.65;;
11453;SDS011;5783;55.174;61.310;2023-07-09T03:41:07;5.60;;;4.60;;
11453;SDS011;5783;55.174;61.310;2023-07-09T03:43:37;5.30;;;4.70;;
11453;SDS011;5783;55.174;61.310;2023-07-09T03:46:06;5.37;;;4.40;;
11453;SDS011;5783;55.174;61.310;2023-07-09T03:48:35;5.10;;;4.60;;
11453;SDS011;5783;55.174;61.310;2023-07-09T03:51:06;5.85;;;4.60;;
11453;SDS011;5783;55.174;61.310;2023-07-09T03:53:35;5.13;;;4.63;;
11453;SDS011;5783;55.174;61.310;2023-07-09T03:56:05;5.17;;;4.63;;
11453;SDS011;5783;55.174;61.310;2023-07-09T03:58:34;5.85;;;4.90;;
11453;SDS011;5783;55.174;61.310;2023-07-09T04:01:04;5.80;;;4.80;;
11453;SDS011;5783;55.174;61.310;2023-07-09T04:03:33;5.30;;;4.80;;
11453;SDS011;5783;55.174;61.310;2023-07-09T04:06:02;5.00;;;4.50;;
11453;SDS011;5783;55.174;61.310;2023-07-09T04:08:31;5.10;;;4.60;;
11453;SDS011;5783;55.174;61.310;2023-07-09T04:13:30;7.50;;;4.80;;
11453;SDS011;5783;55.174;61.310;2023-07-09T04:15:59;11.00;;;6.60;;
11453;SDS011;5783;55.174;61.310;2023-07-09T04:18:28;11.00;;;7.40;;
11453;SDS011;5783;55.174;61.310;2023-07-09T04:20:57;10.80;;;7.70;;
11453;SDS011;5783;55.174;61.310;2023-07-09T04:23:26;12.05;;;9.55;;
11453;SDS011;5783;55.174;61.310;2023-07-09T04:25:55;13.70;;;10.00;;
11453;SDS011;5783;55.174;61.310;2023-07-09T04:28:26;17.00;;;12.10;;
11453;SDS011;5783;55.174;61.310;2023-07-09T04:30:56;17.50;;;12.20;;
11453;SDS011;5783;55.174;61.310;2023-07-09T04:35:53;18.60;;;15.60;;
11453;SDS011;5783;55.174;61.310;2023-07-09T04:38:24;23.80;;;15.90;;
11453;SDS011;5783;55.174;61.310;2023-07-09T04:40:53;21.60;;;16.60;;
11453;SDS011;5783;55.174;61.310;2023-07-09T04:43:22;21.90;;;16.60;;
11453;SDS011;5783;55.174;61.310;2023-07-09T04:45:51;22.50;;;16.60;;
11453;SDS011;5783;55.174;61.310;2023-07-09T04:48:20;24.20;;;18.30;;
11453;SDS011;5783;55.174;61.310;2023-07-09T04:50:50;23.60;;;17.80;;
11453;SDS011;5783;55.174;61.310;2023-07-09T04:53:19;24.60;;;18.00;;
11453;SDS011;5783;55.174;61.310;2023-07-09T04:58:18;24.30;;;19.20;;
11453;SDS011;5783;55.174;61.310;2023-07-09T05:00:47;33.77;;;24.70;;
11453;SDS011;5783;55.174;61.310;2023-07-09T05:03:18;28.15;;;21.90;;
11453;SDS011;5783;55.174;61.310;2023-07-09T05:16:01;28.10;;;22.70;;
11453;SDS011;5783;55.174;61.310;2023-07-09T05:20:59;26.50;;;20.40;;
11453;SDS011;5783;55.174;61.310;2023-07-09T05:23:28;22.90;;;17.85;;
11453;SDS011;5783;55.174;61.310;2023-07-09T05:30:55;20.70;;;15.10;;
11453;SDS011;5783;55.174;61.310;2023-07-09T05:33:25;20.63;;;14.53;;
11453;SDS011;5783;55.174;61.310;2023-07-09T05:38:22;19.50;;;13.10;;
11453;SDS011;5783;55.174;61.310;2023-07-09T05:43:42;14.57;;;11.67;;
11453;SDS011;5783;55.174;61.310;2023-07-09T05:46:12;16.00;;;12.30;;
11453;SDS011;5783;55.174;61.310;2023-07-09T05:48:42;16.33;;;11.27;;
11453;SDS011;5783;55.174;61.310;2023-07-09T05:51:11;12.30;;;10.00;;
11453;SDS011;5783;55.174;61.310;2023-07-09T05:53:40;12.80;;;9.70;;
11453;SDS011;5783;55.174;61.310;2023-07-09T05:56:09;14.25;;;10.00;;
11453;SDS011;5783;55.174;61.310;2023-07-09T05:58:38;14.70;;;9.40;;
11453;SDS011;5783;55.174;61.310;2023-07-09T06:01:07;11.43;;;8.90;;
11453;SDS011;5783;55.174;61.310;2023-07-09T06:03:38;12.77;;;8.70;;
11453;SDS011;5783;55.174;61.310;2023-07-09T06:06:08;13.45;;;8.40;;
11453;SDS011;5783;55.174;61.310;2023-07-09T06:08:38;11.35;;;8.80;;
11453;SDS011;5783;55.174;61.310;2023-07-09T06:11:07;11.83;;;7.97;;
11453;SDS011;5783;55.174;61.310;2023-07-09T06:13:37;10.20;;;7.70;;
11453;SDS011;5783;55.174;61.310;2023-07-09T06:16:06;10.20;;;7.47;;
11453;SDS011;5783;55.174;61.310;2023-07-09T06:18:35;9.20;;;7.20;;
11453;SDS011;5783;55.174;61.310;2023-07-09T06:21:05;9.50;;;6.70;;
11453;SDS011;5783;55.174;61.310;2023-07-09T06:23:35;10.15;;;7.40;;
11453;SDS011;5783;55.174;61.310;2023-07-09T06:26:05;10.10;;;7.05;;
11453;SDS011;5783;55.174;61.310;2023-07-09T06:28:34;11.10;;;6.83;;
11453;SDS011;5783;55.174;61.310;2023-07-09T06:31:03;9.30;;;6.70;;
11453;SDS011;5783;55.174;61.310;2023-07-09T06:33:32;9.60;;;6.60;;
11453;SDS011;5783;55.174;61.310;2023-07-09T06:36:02;11.55;;;6.60;;
11453;SDS011;5783;55.174;61.310;2023-07-09T06:38:31;9.43;;;6.73;;
11453;SDS011;5783;55.174;61.310;2023-07-09T06:41:01;9.60;;;6.80;;
11453;SDS011;5783;55.174;61.310;2023-07-09T06:43:30;8.00;;;6.40;;
11453;SDS011;5783;55.174;61.310;2023-07-09T06:46:00;9.43;;;6.53;;
11453;SDS011;5783;55.174;61.310;2023-07-09T06:48:29;8.43;;;6.70;;
11453;SDS011;5783;55.174;61.310;2023-07-09T06:50:59;8.20;;;6.40;;
11453;SDS011;5783;55.174;61.310;2023-07-09T06:53:29;8.25;;;6.35;;
11453;SDS011;5783;55.174;61.310;2023-07-09T06:55:58;8.25;;;6.30;;
11453;SDS011;5783;55.174;61.310;2023-07-09T06:58:28;6.60;;;5.80;;
11453;SDS011;5783;55.174;61.310;2023-07-09T07:03:48;9.80;;;6.50;;
11453;SDS011;5783;55.174;61.310;2023-07-09T07:06:17;9.27;;;6.50;;
11453;SDS011;5783;55.174;61.310;2023-07-09T07:08:46;8.90;;;6.30;;
11453;SDS011;5783;55.174;61.310;2023-07-09T07:11:15;8.63;;;6.27;;
11453;SDS011;5783;55.174;61.310;2023-07-09T07:13:44;10.40;;;6.47;;
11453;SDS011;5783;55.174;61.310;2023-07-09T07:16:15;7.53;;;6.17;;
11453;SDS011;5783;55.174;61.310;2023-07-09T07:18:44;7.43;;;6.23;;
11453;SDS011;5783;55.174;61.310;2023-07-09T07:21:14;7.13;;;5.90;;
11453;SDS011;5783;55.174;61.310;2023-07-09T08:18:32;7.60;;;6.30;;
11453;SDS011;5783;55.174;61.310;2023-07-09T08:28:29;6.60;;;5.90;;
11453;SDS011;5783;55.174;61.310;2023-07-09T08:30:58;6.70;;;5.70;;
11453;SDS011;5783;55.174;61.310;2023-07-09T08:54:58;7.10;;;6.40;;
11453;SDS011;5783;55.174;61.310;2023-07-09T09:39:55;9.00;;;7.10;;
11453;SDS011;5783;55.174;61.310;2023-07-09T09:42:26;8.80;;;6.90;;
11453;SDS011;5783;55.174;61.310;2023-07-09T10:02:59;7.90;;;6.80;;
11453;SDS011;5783;55.174;61.310;2023-07-09T11:38:06;8.30;;;6.80;;
11453;SDS011;5783;55.174;61.310;2023-07-09T12:37:24;8.90;;;6.70;;
11453;SDS011;5783;55.174;61.310;2023-07-09T12:39:58;9.30;;;7.05;;
11453;SDS011;5783;55.174;61.310;2023-07-09T12:42:30;7.80;;;6.90;;
11453;SDS011;5783;55.174;61.310;2023-07-09T12:47:29;6.80;;;6.10;;
11453;SDS011;5783;55.174;61.310;2023-07-09T12:52:51;7.20;;;6.47;;
11453;SDS011;5783;55.174;61.310;2023-07-09T12:55:22;8.23;;;6.40;;
11453;SDS011;5783;55.174;61.310;2023-07-09T12:58:17;7.10;;;6.40;;
11453;SDS011;5783;55.174;61.310;2023-07-09T13:00:46;6.60;;;5.90;;
11453;SDS011;5783;55.174;61.310;2023-07-09T13:03:34;7.50;;;6.70;;
11453;SDS011;5783;55.174;61.310;2023-07-09T13:06:04;7.17;;;6.47;;
11453;SDS011;5783;55.174;61.310;2023-07-09T13:11:57;7.77;;;6.30;;
11453;SDS011;5783;55.174;61.310;2023-07-09T13:14:18;7.23;;;5.97;;
11453;SDS011;5783;55.174;61.310;2023-07-09T13:16:48;8.60;;;6.10;;
11453;SDS011;5783;55.174;61.310;2023-07-09T13:19:18;8.30;;;6.17;;
11453;SDS011;5783;55.174;61.310;2023-07-09T13:21:47;7.43;;;5.80;;
11453;SDS011;5783;55.174;61.310;2023-07-09T13:27:05;6.17;;;5.57;;
11453;SDS011;5783;55.174;61.310;2023-07-09T13:29:37;7.70;;;6.17;;
11453;SDS011;5783;55.174;61.310;2023-07-09T13:32:08;6.90;;;6.20;;
11453;SDS011;5783;55.174;61.310;2023-07-09T13:34:39;6.50;;;5.90;;
11453;SDS011;5783;55.174;61.310;2023-07-09T13:39:58;7.20;;;6.20;;
11453;SDS011;5783;55.174;61.310;2023-07-09T13:42:27;6.93;;;6.23;;
11453;SDS011;5783;55.174;61.310;2023-07-09T13:44:56;8.10;;;5.90;;
11453;SDS011;5783;55.174;61.310;2023-07-09T13:47:25;6.53;;;5.93;;
11453;SDS011;5783;55.174;61.310;2023-07-09T13:49:55;9.30;;;6.30;;
11453;SDS011;5783;55.174;61.310;2023-07-09T13:52:24;7.55;;;6.10;;
11453;SDS011;5783;55.174;61.310;2023-07-09T13:54:54;6.83;;;6.23;;
11453;SDS011;5783;55.174;61.310;2023-07-09T13:57:23;7.60;;;6.20;;
11453;SDS011;5783;55.174;61.310;2023-07-09T13:59:52;7.47;;;6.67;;
11453;SDS011;5783;55.174;61.310;2023-07-09T14:02:24;8.97;;;6.10;;
11453;SDS011;5783;55.174;61.310;2023-07-09T14:05:13;6.70;;;6.00;;
11453;SDS011;5783;55.174;61.310;2023-07-09T14:07:42;8.45;;;6.60;;
11453;SDS011;5783;55.174;61.310;2023-07-09T14:10:13;8.20;;;5.83;;
11453;SDS011;5783;55.174;61.310;2023-07-09T14:12:44;7.00;;;6.30;;
11453;SDS011;5783;55.174;61.310;2023-07-09T14:15:16;6.75;;;6.00;;
11453;SDS011;5783;55.174;61.310;2023-07-09T14:25:17;8.90;;;5.80;;
11453;SDS011;5783;55.174;61.310;2023-07-09T14:27:47;8.40;;;5.90;;
11453;SDS011;5783;55.174;61.310;2023-07-09T14:30:36;6.35;;;5.75;;
11453;SDS011;5783;55.174;61.310;2023-07-09T14:33:09;7.40;;;5.70;;
11453;SDS011;5783;55.174;61.310;2023-07-09T14:40:55;6.20;;;5.50;;
11453;SDS011;5783;55.174;61.310;2023-07-09T14:45:54;7.10;;;5.80;;
11453;SDS011;5783;55.174;61.310;2023-07-09T14:48:23;6.50;;;5.40;;
11453;SDS011;5783;55.174;61.310;2023-07-09T14:53:21;6.30;;;5.30;;
11453;SDS011;5783;55.174;61.310;2023-07-09T15:00:51;8.60;;;5.40;;
11453;SDS011;5783;55.174;61.310;2023-07-09T15:33:11;6.70;;;5.40;;
